sensor_id;sensor_type;location;lat;lon;timestamp;pressure;altitude;pressure_sealevel;temperature;humidity
48404;BME280;34202;52.536;6.042;2023-04-19T00:03:09;103007.16;;;8.08;88.86
48404;BME280;34202;52.536;6.042;2023-04-19T00:08:09;103003.55;;;8.09;89.16
48404;BME280;34202;52.536;6.042;2023-04-19T00:13:09;103005.63;;;8.09;89.46
48404;BME280;34202;52.536;6.042;2023-04-19T00:18:10;103004.39;;;8.08;89.65
48404;BME280;34202;52.536;6.042;2023-04-19T00:23:10;103003.76;;;8.09;89.87
48404;BME280;34202;52.536;6.042;2023-04-19T00:28:11;102996.96;;;8.09;90.12
48404;BME280;34202;52.536;6.042;2023-04-19T00:33:11;102995.88;;;8.08;90.33
48404;BME280;34202;52.536;6.042;2023-04-19T00:38:11;102994.30;;;8.07;90.31
48404;BME280;34202;52.536;6.042;2023-04-19T00:43:15;102988.11;;;8.09;90.91
48404;BME280;34202;52.536;6.042;2023-04-19T00:48:16;102986.52;;;8.08;90.99
48404;BME280;34202;52.536;6.042;2023-04-19T00:53:16;102986.76;;;8.06;91.31
48404;BME280;34202;52.536;6.042;2023-04-19T00:58:16;102977.98;;;8.04;91.34
48404;BME280;34202;52.536;6.042;2023-04-19T01:03:17;102977.16;;;8.02;91.48
48404;BME280;34202;52.536;6.042;2023-04-19T01:08:17;102977.25;;;8.00;91.64
48404;BME280;34202;52.536;6.042;2023-04-19T01:13:17;102980.27;;;7.98;91.87
48404;BME280;34202;52.536;6.042;2023-04-19T01:18:18;102973.84;;;7.94;92.01
48404;BME280;34202;52.536;6.042;2023-04-19T01:23:18;102972.98;;;7.91;92.31
48404;BME280;34202;52.536;6.042;2023-04-19T01:28:19;102967.98;;;7.88;92.55
48404;BME280;34202;52.536;6.042;2023-04-19T01:33:19;102975.87;;;7.86;93.08
48404;BME280;34202;52.536;6.042;2023-04-19T01:38:20;102975.42;;;7.84;93.29
48404;BME280;34202;52.536;6.042;2023-04-19T01:43:20;102973.50;;;7.84;93.69
48404;BME280;34202;52.536;6.042;2023-04-19T01:48:21;102973.98;;;7.84;93.77
48404;BME280;34202;52.536;6.042;2023-04-19T01:53:21;102971.86;;;7.83;93.68
48404;BME280;34202;52.536;6.042;2023-04-19T01:58:21;102972.69;;;7.85;94.40
48404;BME280;34202;52.536;6.042;2023-04-19T02:03:21;102971.96;;;7.88;94.53
48404;BME280;34202;52.536;6.042;2023-04-19T02:08:22;102976.03;;;7.93;94.97
48404;BME280;34202;52.536;6.042;2023-04-19T02:13:22;102974.81;;;7.96;94.86
48404;BME280;34202;52.536;6.042;2023-04-19T02:18:22;102973.70;;;7.99;94.97
48404;BME280;34202;52.536;6.042;2023-04-19T02:23:23;102973.11;;;8.00;94.96
48404;BME280;34202;52.536;6.042;2023-04-19T02:28:23;102970.94;;;8.02;94.70
48404;BME280;34202;52.536;6.042;2023-04-19T02:33:24;102973.33;;;8.05;94.70
48404;BME280;34202;52.536;6.042;2023-04-19T02:38:25;102975.38;;;8.04;94.35
48404;BME280;34202;52.536;6.042;2023-04-19T02:43:25;102981.13;;;8.05;94.09
48404;BME280;34202;52.536;6.042;2023-04-19T02:48:25;102985.66;;;8.05;93.92
48404;BME280;34202;52.536;6.042;2023-04-19T02:53:25;102988.77;;;8.05;93.56
48404;BME280;34202;52.536;6.042;2023-04-19T02:58:26;102990.97;;;8.04;93.07
48404;BME280;34202;52.536;6.042;2023-04-19T03:03:26;102996.44;;;8.02;92.87
48404;BME280;34202;52.536;6.042;2023-04-19T03:08:26;102997.70;;;8.00;92.52
48404;BME280;34202;52.536;6.042;2023-04-19T03:13:26;102997.73;;;7.97;92.39
48404;BME280;34202;52.536;6.042;2023-04-19T03:18:27;103000.16;;;7.94;91.75
48404;BME280;34202;52.536;6.042;2023-04-19T03:23:27;102993.80;;;7.91;91.56
48404;BME280;34202;52.536;6.042;2023-04-19T03:28:27;102991.64;;;7.90;91.33
48404;BME280;34202;52.536;6.042;2023-04-19T03:33:27;102988.59;;;7.87;91.06
48404;BME280;34202;52.536;6.042;2023-04-19T03:38:28;102980.38;;;7.86;90.51
48404;BME280;34202;52.536;6.042;2023-04-19T03:43:28;102975.46;;;7.85;90.39
48404;BME280;34202;52.536;6.042;2023-04-19T03:48:28;102976.42;;;7.84;90.05
48404;BME280;34202;52.536;6.042;2023-04-19T03:53:28;102974.77;;;7.82;89.70
48404;BME280;34202;52.536;6.042;2023-04-19T03:58:28;102973.45;;;7.80;89.07
48404;BME280;34202;52.536;6.042;2023-04-19T04:03:29;102974.84;;;7.77;88.34
48404;BME280;34202;52.536;6.042;2023-04-19T04:08:29;102979.02;;;7.74;87.80
48404;BME280;34202;52.536;6.042;2023-04-19T04:13:29;102978.52;;;7.71;87.39
48404;BME280;34202;52.536;6.042;2023-04-19T04:18:30;102979.79;;;7.68;86.66
48404;BME280;34202;52.536;6.042;2023-04-19T04:23:31;102980.52;;;7.66;85.86
48404;BME280;34202;52.536;6.042;2023-04-19T04:28:32;102981.93;;;7.63;85.35
48404;BME280;34202;52.536;6.042;2023-04-19T04:33:33;102988.92;;;7.61;84.51
48404;BME280;34202;52.536;6.042;2023-04-19T04:38:33;102992.83;;;7.57;84.30
48404;BME280;34202;52.536;6.042;2023-04-19T04:43:33;102998.15;;;7.49;84.23
48404;BME280;34202;52.536;6.042;2023-04-19T04:48:33;102998.71;;;7.37;84.09
48404;BME280;34202;52.536;6.042;2023-04-19T04:53:34;103005.58;;;7.26;84.36
48404;BME280;34202;52.536;6.042;2023-04-19T04:58:34;103010.21;;;7.16;84.49
48404;BME280;34202;52.536;6.042;2023-04-19T05:03:34;103009.39;;;7.07;84.32
48404;BME280;34202;52.536;6.042;2023-04-19T05:08:35;103012.72;;;6.99;83.82
48404;BME280;34202;52.536;6.042;2023-04-19T05:13:35;103011.43;;;6.91;83.47
48404;BME280;34202;52.536;6.042;2023-04-19T05:18:35;103014.52;;;6.85;83.04
48404;BME280;34202;52.536;6.042;2023-04-19T05:23:36;103018.53;;;6.79;82.51
48404;BME280;34202;52.536;6.042;2023-04-19T05:28:37;103022.29;;;6.72;81.93
48404;BME280;34202;52.536;6.042;2023-04-19T05:33:37;103018.84;;;6.66;81.46
48404;BME280;34202;52.536;6.042;2023-04-19T05:38:37;103020.52;;;6.62;81.24
48404;BME280;34202;52.536;6.042;2023-04-19T05:43:37;103022.53;;;6.58;80.94
48404;BME280;34202;52.536;6.042;2023-04-19T05:48:38;103025.83;;;6.55;80.88
48404;BME280;34202;52.536;6.042;2023-04-19T05:53:38;103027.92;;;6.56;80.96
48404;BME280;34202;52.536;6.042;2023-04-19T05:58:38;103029.23;;;6.57;81.05
48404;BME280;34202;52.536;6.042;2023-04-19T06:03:38;103031.92;;;6.59;80.57
48404;BME280;34202;52.536;6.042;2023-04-19T06:08:39;103034.57;;;6.60;80.38
48404;BME280;34202;52.536;6.042;2023-04-19T06:13:39;103039.02;;;6.62;80.07
48404;BME280;34202;52.536;6.042;2023-04-19T06:18:40;103044.49;;;6.67;80.14
48404;BME280;34202;52.536;6.042;2023-04-19T06:23:42;103048.04;;;6.74;80.17
48404;BME280;34202;52.536;6.042;2023-04-19T06:28:42;103056.21;;;6.84;79.84
48404;BME280;34202;52.536;6.042;2023-04-19T06:33:42;103057.27;;;6.93;79.86
48404;BME280;34202;52.536;6.042;2023-04-19T06:38:42;103055.89;;;7.03;79.40
48404;BME280;34202;52.536;6.042;2023-04-19T06:43:46;103055.72;;;7.12;78.54
48404;BME280;34202;52.536;6.042;2023-04-19T06:48:46;103056.38;;;7.24;78.45
48404;BME280;34202;52.536;6.042;2023-04-19T06:53:46;103051.05;;;7.40;79.06
48404;BME280;34202;52.536;6.042;2023-04-19T06:58:48;103056.70;;;7.59;78.72
48404;BME280;34202;52.536;6.042;2023-04-19T07:03:48;103054.70;;;7.76;77.60
48404;BME280;34202;52.536;6.042;2023-04-19T07:08:48;103046.67;;;7.94;76.85
48404;BME280;34202;52.536;6.042;2023-04-19T07:13:49;103050.98;;;8.11;75.75
48404;BME280;34202;52.536;6.042;2023-04-19T07:18:50;103050.31;;;8.28;75.05
48404;BME280;34202;52.536;6.042;2023-04-19T07:23:50;103050.46;;;8.44;74.43
48404;BME280;34202;52.536;6.042;2023-04-19T07:28:50;103046.73;;;8.59;72.98
48404;BME280;34202;52.536;6.042;2023-04-19T07:33:51;103045.98;;;8.72;72.27
48404;BME280;34202;52.536;6.042;2023-04-19T07:38:51;103050.24;;;8.92;72.21
48404;BME280;34202;52.536;6.042;2023-04-19T07:43:52;103042.25;;;9.10;71.90
48404;BME280;34202;52.536;6.042;2023-04-19T07:48:52;103042.37;;;9.27;69.24
48404;BME280;34202;52.536;6.042;2023-04-19T07:53:52;103038.39;;;9.42;68.70
48404;BME280;34202;52.536;6.042;2023-04-19T07:58:53;103038.70;;;9.56;68.00
48404;BME280;34202;52.536;6.042;2023-04-19T08:03:53;103028.46;;;9.68;67.47
48404;BME280;34202;52.536;6.042;2023-04-19T08:08:53;103027.59;;;9.84;66.81
48404;BME280;34202;52.536;6.042;2023-04-19T08:13:53;103027.01;;;10.02;66.78
48404;BME280;34202;52.536;6.042;2023-04-19T08:18:54;103023.44;;;10.16;65.09
48404;BME280;34202;52.536;6.042;2023-04-19T08:23:54;103020.28;;;10.28;64.83
48404;BME280;34202;52.536;6.042;2023-04-19T08:28:55;103019.05;;;10.43;63.05
48404;BME280;34202;52.536;6.042;2023-04-19T08:33:55;103013.97;;;10.55;62.38
48404;BME280;34202;52.536;6.042;2023-04-19T08:38:57;103013.35;;;10.65;62.17
48404;BME280;34202;52.536;6.042;2023-04-19T08:43:57;103016.10;;;10.82;61.37
48404;BME280;34202;52.536;6.042;2023-04-19T08:48:58;103011.17;;;10.98;59.78
48404;BME280;34202;52.536;6.042;2023-04-19T08:53:59;103009.29;;;11.07;58.88
48404;BME280;34202;52.536;6.042;2023-04-19T08:59:01;103014.17;;;11.17;58.70
48404;BME280;34202;52.536;6.042;2023-04-19T09:04:02;103003.91;;;11.31;58.98
48404;BME280;34202;52.536;6.042;2023-04-19T09:09:17;102996.83;;;11.51;55.87
48404;BME280;34202;52.536;6.042;2023-04-19T09:14:19;102993.17;;;11.60;55.71
48404;BME280;34202;52.536;6.042;2023-04-19T09:19:20;102987.53;;;11.74;56.48
48404;BME280;34202;52.536;6.042;2023-04-19T09:24:36;102989.27;;;11.92;55.38
48404;BME280;34202;52.536;6.042;2023-04-19T09:29:36;102986.95;;;12.10;55.45
48404;BME280;34202;52.536;6.042;2023-04-19T09:34:38;102981.27;;;12.23;51.45
48404;BME280;34202;52.536;6.042;2023-04-19T09:39:50;102984.44;;;12.18;49.98
48404;BME280;34202;52.536;6.042;2023-04-19T09:44:57;102985.08;;;12.22;51.05
48404;BME280;34202;52.536;6.042;2023-04-19T09:50:07;102976.33;;;12.31;49.77
48404;BME280;34202;52.536;6.042;2023-04-19T09:55:08;102963.74;;;12.47;50.58
48404;BME280;34202;52.536;6.042;2023-04-19T10:00:09;102965.70;;;12.65;48.63
48404;BME280;34202;52.536;6.042;2023-04-19T10:05:12;102962.33;;;12.73;46.43
48404;BME280;34202;52.536;6.042;2023-04-19T10:10:15;102961.27;;;12.79;46.62
48404;BME280;34202;52.536;6.042;2023-04-19T10:15:16;102957.56;;;12.89;45.29
48404;BME280;34202;52.536;6.042;2023-04-19T10:20:41;102955.35;;;12.97;45.38
48404;BME280;34202;52.536;6.042;2023-04-19T10:25:38;102952.05;;;13.02;44.03
48404;BME280;34202;52.536;6.042;2023-04-19T10:30:51;102951.80;;;13.07;42.40
48404;BME280;34202;52.536;6.042;2023-04-19T10:35:54;102942.73;;;13.13;43.22
48404;BME280;34202;52.536;6.042;2023-04-19T10:40:55;102933.61;;;13.30;43.92
48404;BME280;34202;52.536;6.042;2023-04-19T10:46:05;102932.95;;;13.36;40.36
48404;BME280;34202;52.536;6.042;2023-04-19T10:51:26;102921.61;;;13.44;42.50
48404;BME280;34202;52.536;6.042;2023-04-19T11:11:52;102903.95;;;13.76;40.97
48404;BME280;34202;52.536;6.042;2023-04-19T11:16:52;102888.95;;;13.71;41.97
48404;BME280;34202;52.536;6.042;2023-04-19T11:21:53;102894.39;;;13.86;42.48
48404;BME280;34202;52.536;6.042;2023-04-19T11:26:56;102880.10;;;13.88;41.38
48404;BME280;34202;52.536;6.042;2023-04-19T11:31:58;102872.83;;;13.84;40.58
48404;BME280;34202;52.536;6.042;2023-04-19T11:36:59;102872.92;;;13.95;42.01
48404;BME280;34202;52.536;6.042;2023-04-19T11:41:59;102857.41;;;14.05;42.78
48404;BME280;34202;52.536;6.042;2023-04-19T11:47:03;102859.51;;;14.19;41.73
48404;BME280;34202;52.536;6.042;2023-04-19T11:52:07;102841.33;;;14.21;38.97
48404;BME280;34202;52.536;6.042;2023-04-19T11:57:07;102836.05;;;14.28;40.51
48404;BME280;34202;52.536;6.042;2023-04-19T12:02:08;102831.95;;;14.47;40.89
48404;BME280;34202;52.536;6.042;2023-04-19T12:07:09;102828.06;;;14.60;39.63
48404;BME280;34202;52.536;6.042;2023-04-19T12:12:10;102812.50;;;14.61;38.25
48404;BME280;34202;52.536;6.042;2023-04-19T12:17:11;102795.06;;;14.66;39.05
48404;BME280;34202;52.536;6.042;2023-04-19T12:22:16;102793.02;;;14.77;38.66
48404;BME280;34202;52.536;6.042;2023-04-19T12:27:19;102796.04;;;14.87;37.84
48404;BME280;34202;52.536;6.042;2023-04-19T12:32:19;102791.44;;;14.95;37.67
48404;BME280;34202;52.536;6.042;2023-04-19T12:37:19;102784.37;;;15.00;36.81
48404;BME280;34202;52.536;6.042;2023-04-19T12:42:20;102777.56;;;15.02;36.21
48404;BME280;34202;52.536;6.042;2023-04-19T12:47:21;102777.94;;;15.13;37.52
48404;BME280;34202;52.536;6.042;2023-04-19T12:52:21;102768.27;;;15.21;36.98
48404;BME280;34202;52.536;6.042;2023-04-19T12:57:22;102757.52;;;15.28;37.81
48404;BME280;34202;52.536;6.042;2023-04-19T13:02:22;102752.07;;;15.37;37.29
48404;BME280;34202;52.536;6.042;2023-04-19T13:07:22;102742.73;;;15.35;37.70
48404;BME280;34202;52.536;6.042;2023-04-19T13:12:23;102738.89;;;15.37;38.16
48404;BME280;34202;52.536;6.042;2023-04-19T13:17:23;102735.32;;;15.33;38.54
48404;BME280;34202;52.536;6.042;2023-04-19T13:22:23;102734.45;;;15.23;37.66
48404;BME280;34202;52.536;6.042;2023-04-19T13:27:23;102723.04;;;15.12;38.38
48404;BME280;34202;52.536;6.042;2023-04-19T13:32:24;102715.75;;;15.07;39.08
48404;BME280;34202;52.536;6.042;2023-04-19T13:37:24;102711.86;;;15.05;39.79
48404;BME280;34202;52.536;6.042;2023-04-19T13:42:24;102705.73;;;15.05;39.65
48404;BME280;34202;52.536;6.042;2023-04-19T13:47:25;102702.39;;;14.95;39.15
48404;BME280;34202;52.536;6.042;2023-04-19T13:52:25;102691.37;;;14.87;40.48
48404;BME280;34202;52.536;6.042;2023-04-19T13:57:25;102687.70;;;14.87;40.84
48404;BME280;34202;52.536;6.042;2023-04-19T14:02:26;102682.83;;;14.80;41.03
48404;BME280;34202;52.536;6.042;2023-04-19T14:07:27;102672.24;;;14.76;41.26
48404;BME280;34202;52.536;6.042;2023-04-19T14:12:27;102669.75;;;14.74;41.79
48404;BME280;34202;52.536;6.042;2023-04-19T14:17:27;102664.30;;;14.73;41.51
48404;BME280;34202;52.536;6.042;2023-04-19T14:22:27;102665.20;;;14.65;41.56
48404;BME280;34202;52.536;6.042;2023-04-19T14:27:28;102652.63;;;14.59;41.61
48404;BME280;34202;52.536;6.042;2023-04-19T14:32:28;102653.75;;;14.55;40.82
48404;BME280;34202;52.536;6.042;2023-04-19T14:37:29;102645.30;;;14.53;41.28
48404;BME280;34202;52.536;6.042;2023-04-19T14:42:29;102635.14;;;14.53;42.17
48404;BME280;34202;52.536;6.042;2023-04-19T14:47:29;102633.39;;;14.52;42.09
48404;BME280;34202;52.536;6.042;2023-04-19T14:52:30;102624.96;;;14.51;42.88
48404;BME280;34202;52.536;6.042;2023-04-19T14:57:30;102622.02;;;14.54;42.65
48404;BME280;34202;52.536;6.042;2023-04-19T15:02:30;102614.64;;;14.52;42.25
48404;BME280;34202;52.536;6.042;2023-04-19T15:07:31;102611.41;;;14.48;41.98
48404;BME280;34202;52.536;6.042;2023-04-19T15:12:31;102615.23;;;14.46;42.21
48404;BME280;34202;52.536;6.042;2023-04-19T15:17:31;102610.59;;;14.42;42.20
48404;BME280;34202;52.536;6.042;2023-04-19T15:22:31;102606.08;;;14.35;41.57
48404;BME280;34202;52.536;6.042;2023-04-19T15:27:32;102602.89;;;14.33;42.70
48404;BME280;34202;52.536;6.042;2023-04-19T15:32:33;102596.59;;;14.33;42.84
48404;BME280;34202;52.536;6.042;2023-04-19T15:37:35;102597.64;;;14.34;42.43
48404;BME280;34202;52.536;6.042;2023-04-19T15:42:37;102595.54;;;14.24;42.01
48404;BME280;34202;52.536;6.042;2023-04-19T15:47:37;102590.33;;;14.17;41.99
48404;BME280;34202;52.536;6.042;2023-04-19T15:52:38;102589.84;;;14.10;42.11
48404;BME280;34202;52.536;6.042;2023-04-19T15:57:38;102590.23;;;14.04;42.19
48404;BME280;34202;52.536;6.042;2023-04-19T16:02:38;102585.62;;;14.01;42.96
48404;BME280;34202;52.536;6.042;2023-04-19T16:07:41;102590.27;;;14.06;42.39
48404;BME280;34202;52.536;6.042;2023-04-19T16:12:41;102586.92;;;14.04;41.50
48404;BME280;34202;52.536;6.042;2023-04-19T16:17:43;102590.94;;;13.87;41.80
48404;BME280;34202;52.536;6.042;2023-04-19T16:22:43;102583.45;;;13.72;41.88
48404;BME280;34202;52.536;6.042;2023-04-19T16:27:44;102579.33;;;13.67;42.02
48404;BME280;34202;52.536;6.042;2023-04-19T16:32:45;102581.15;;;13.63;42.13
48404;BME280;34202;52.536;6.042;2023-04-19T16:37:45;102574.83;;;13.54;42.12
48404;BME280;34202;52.536;6.042;2023-04-19T16:42:45;102576.11;;;13.48;43.04
48404;BME280;34202;52.536;6.042;2023-04-19T16:47:45;102575.46;;;13.43;42.38
48404;BME280;34202;52.536;6.042;2023-04-19T16:52:47;102570.02;;;13.34;42.28
48404;BME280;34202;52.536;6.042;2023-04-19T16:57:47;102571.16;;;13.25;41.96
48404;BME280;34202;52.536;6.042;2023-04-19T17:02:47;102571.49;;;13.16;42.99
48404;BME280;34202;52.536;6.042;2023-04-19T17:07:48;102567.52;;;13.11;43.03
48404;BME280;34202;52.536;6.042;2023-04-19T17:12:49;102565.06;;;13.04;42.68
48404;BME280;34202;52.536;6.042;2023-04-19T17:17:49;102561.77;;;12.97;43.49
48404;BME280;34202;52.536;6.042;2023-04-19T17:22:49;102561.25;;;12.90;42.96
48404;BME280;34202;52.536;6.042;2023-04-19T17:27:49;102560.55;;;12.83;42.52
48404;BME280;34202;52.536;6.042;2023-04-19T17:32:50;102563.49;;;12.75;43.29
48404;BME280;34202;52.536;6.042;2023-04-19T17:37:51;102559.06;;;12.65;43.25
48404;BME280;34202;52.536;6.042;2023-04-19T17:42:51;102560.20;;;12.55;42.71
48404;BME280;34202;52.536;6.042;2023-04-19T17:47:51;102561.89;;;12.47;42.85
48404;BME280;34202;52.536;6.042;2023-04-19T17:52:52;102554.33;;;12.37;43.18
48404;BME280;34202;52.536;6.042;2023-04-19T17:57:53;102558.11;;;12.29;43.59
48404;BME280;34202;52.536;6.042;2023-04-19T18:02:54;102561.48;;;12.18;43.64
48404;BME280;34202;52.536;6.042;2023-04-19T18:07:54;102562.20;;;12.06;44.02
48404;BME280;34202;52.536;6.042;2023-04-19T18:12:55;102564.44;;;11.93;43.95
48404;BME280;34202;52.536;6.042;2023-04-19T18:17:55;102561.78;;;11.80;44.09
48404;BME280;34202;52.536;6.042;2023-04-19T18:22:55;102564.80;;;11.70;43.43
48404;BME280;34202;52.536;6.042;2023-04-19T18:27:58;102562.64;;;11.62;42.81
48404;BME280;34202;52.536;6.042;2023-04-19T18:32:59;102567.08;;;11.53;43.08
48404;BME280;34202;52.536;6.042;2023-04-19T18:37:59;102580.31;;;11.41;43.37
48404;BME280;34202;52.536;6.042;2023-04-19T18:43:00;102586.88;;;11.28;43.72
48404;BME280;34202;52.536;6.042;2023-04-19T18:48:01;102595.41;;;11.17;43.79
48404;BME280;34202;52.536;6.042;2023-04-19T18:53:01;102605.70;;;11.07;44.16
48404;BME280;34202;52.536;6.042;2023-04-19T18:58:02;102616.20;;;10.97;44.44
48404;BME280;34202;52.536;6.042;2023-04-19T19:03:02;102625.22;;;10.86;44.56
48404;BME280;34202;52.536;6.042;2023-04-19T19:08:03;102631.50;;;10.76;44.52
48404;BME280;34202;52.536;6.042;2023-04-19T19:13:03;102640.54;;;10.65;44.17
48404;BME280;34202;52.536;6.042;2023-04-19T19:18:03;102642.23;;;10.54;44.17
48404;BME280;34202;52.536;6.042;2023-04-19T19:23:04;102647.74;;;10.43;43.21
48404;BME280;34202;52.536;6.042;2023-04-19T19:28:04;102650.35;;;10.33;43.15
48404;BME280;34202;52.536;6.042;2023-04-19T19:33:04;102651.46;;;10.22;43.18
48404;BME280;34202;52.536;6.042;2023-04-19T19:38:05;102657.73;;;10.08;43.44
48404;BME280;34202;52.536;6.042;2023-04-19T19:43:05;102659.81;;;9.94;43.63
48404;BME280;34202;52.536;6.042;2023-04-19T19:48:05;102664.68;;;9.80;43.76
48404;BME280;34202;52.536;6.042;2023-04-19T19:53:06;102670.31;;;9.69;43.97
48404;BME280;34202;52.536;6.042;2023-04-19T19:58:06;102674.21;;;9.58;44.15
48404;BME280;34202;52.536;6.042;2023-04-19T20:03:06;102674.73;;;9.44;44.28
48404;BME280;34202;52.536;6.042;2023-04-19T20:08:10;102675.83;;;9.33;44.41
48404;BME280;34202;52.536;6.042;2023-04-19T20:13:11;102682.91;;;9.24;44.24
48404;BME280;34202;52.536;6.042;2023-04-19T20:18:12;102688.92;;;9.18;44.47
48404;BME280;34202;52.536;6.042;2023-04-19T20:23:13;102683.23;;;9.10;44.25
48404;BME280;34202;52.536;6.042;2023-04-19T20:28:14;102680.08;;;9.01;44.45
48404;BME280;34202;52.536;6.042;2023-04-19T20:33:14;102683.13;;;8.92;44.25
48404;BME280;34202;52.536;6.042;2023-04-19T20:38:15;102687.02;;;8.81;44.17
48404;BME280;34202;52.536;6.042;2023-04-19T20:43:15;102686.70;;;8.70;44.03
48404;BME280;34202;52.536;6.042;2023-04-19T20:48:15;102684.90;;;8.60;44.12
48404;BME280;34202;52.536;6.042;2023-04-19T20:53:16;102683.46;;;8.52;44.06
48404;BME280;34202;52.536;6.042;2023-04-19T20:58:16;102682.55;;;8.43;43.98
48404;BME280;34202;52.536;6.042;2023-04-19T21:03:17;102682.81;;;8.34;43.85
48404;BME280;34202;52.536;6.042;2023-04-19T21:08:17;102682.16;;;8.27;43.72
48404;BME280;34202;52.536;6.042;2023-04-19T21:13:18;102688.35;;;8.22;43.89
48404;BME280;34202;52.536;6.042;2023-04-19T21:18:18;102687.73;;;8.16;43.97
48404;BME280;34202;52.536;6.042;2023-04-19T21:23:18;102691.48;;;8.11;43.84
48404;BME280;34202;52.536;6.042;2023-04-19T21:28:19;102688.04;;;8.04;43.90
48404;BME280;34202;52.536;6.042;2023-04-19T21:33:19;102689.48;;;7.98;44.23
48404;BME280;34202;52.536;6.042;2023-04-19T21:38:19;102688.80;;;7.91;44.17
48404;BME280;34202;52.536;6.042;2023-04-19T21:43:19;102685.91;;;7.81;44.57
48404;BME280;34202;52.536;6.042;2023-04-19T21:48:20;102690.10;;;7.70;45.21
48404;BME280;34202;52.536;6.042;2023-04-19T21:53:20;102690.06;;;7.59;45.98
48404;BME280;34202;52.536;6.042;2023-04-19T21:58:20;102688.17;;;7.49;46.77
48404;BME280;34202;52.536;6.042;2023-04-19T22:03:20;102686.16;;;7.39;47.22
48404;BME280;34202;52.536;6.042;2023-04-19T22:08:21;102686.45;;;7.31;47.45
48404;BME280;34202;52.536;6.042;2023-04-19T22:13:21;102682.92;;;7.23;47.74
48404;BME280;34202;52.536;6.042;2023-04-19T22:18:22;102680.13;;;7.15;47.70
48404;BME280;34202;52.536;6.042;2023-04-19T22:23:22;102680.77;;;7.07;47.75
48404;BME280;34202;52.536;6.042;2023-04-19T22:28:23;102679.63;;;6.98;47.53
48404;BME280;34202;52.536;6.042;2023-04-19T22:33:23;102682.20;;;6.88;47.60
48404;BME280;34202;52.536;6.042;2023-04-19T22:38:23;102676.60;;;6.70;47.93
48404;BME280;34202;52.536;6.042;2023-04-19T22:43:23;102675.94;;;6.54;48.33
48404;BME280;34202;52.536;6.042;2023-04-19T22:48:24;102668.52;;;6.38;48.82
48404;BME280;34202;52.536;6.042;2023-04-19T22:53:24;102657.90;;;6.23;49.16
48404;BME280;34202;52.536;6.042;2023-04-19T22:58:25;102652.45;;;6.09;49.72
48404;BME280;34202;52.536;6.042;2023-04-19T23:03:25;102649.60;;;5.97;50.28
48404;BME280;34202;52.536;6.042;2023-04-19T23:08:25;102640.25;;;5.88;50.89
48404;BME280;34202;52.536;6.042;2023-04-19T23:13:26;102631.04;;;5.81;51.24
48404;BME280;34202;52.536;6.042;2023-04-19T23:18:27;102620.32;;;5.74;51.65
48404;BME280;34202;52.536;6.042;2023-04-19T23:23:28;102611.52;;;5.69;52.27
48404;BME280;34202;52.536;6.042;2023-04-19T23:28:29;102603.83;;;5.63;52.86
48404;BME280;34202;52.536;6.042;2023-04-19T23:33:29;102605.02;;;5.57;53.28
48404;BME280;34202;52.536;6.042;2023-04-19T23:38:30;102595.20;;;5.48;53.61
48404;BME280;34202;52.536;6.042;2023-04-19T23:43:30;102592.47;;;5.42;53.92
48404;BME280;34202;52.536;6.042;2023-04-19T23:48:30;102584.54;;;5.33;54.47
48404;BME280;34202;52.536;6.042;2023-04-19T23:53:30;102577.27;;;5.24;55.10
48404;BME280;34202;52.536;6.042;2023-04-19T23:58:31;102565.06;;;5.15;55.87
